Time;durP1;ratioP1;P1;durP2;ratioP2;P2;SDS_P1;SDS_P2;PMS_P1;PMS_P2;Temp;Humidity;BMP_temperature;BMP_pressure;BME280_temperature;BME280_humidity;BME280_pressure;Samples;Min_cycle;Max_cycle;Signal;HPM_P1;HPM_P2
2023/03/06 00:00:25;;;;;;;17.45;13.07;;;12.00;1.00;;;;;;4955037;29;20027;-62
2023/03/06 00:02:51;;;;;;;23.50;12.52;;;12.10;1.00;;;;;;4955086;29;20023;-62
2023/03/06 00:05:17;;;;;;;21.50;13.10;;;12.10;1.00;;;;;;4954792;29;20174;-62
2023/03/06 00:07:43;;;;;;;22.55;13.30;;;12.10;1.00;;;;;;4955208;29;20042;-62
2023/03/06 00:10:17;;;;;;;16.75;11.60;;;12.10;1.00;;;;;;4953461;28;20038;-62
2023/03/06 00:12:43;;;;;;;22.75;12.10;;;12.00;1.00;;;;;;4955377;29;20029;-62
2023/03/06 00:15:10;;;;;;;23.67;13.07;;;12.00;1.00;;;;;;4955215;29;20384;-62
2023/03/06 00:17:37;;;;;;;26.88;13.10;;;12.00;1.00;;;;;;4954944;29;20532;-62
2023/03/06 00:20:04;;;;;;;24.45;12.40;;;12.00;1.00;;;;;;4954750;29;20019;-62
2023/03/06 00:22:30;;;;;;;23.73;12.68;;;12.00;1.00;;;;;;4955062;29;20030;-62
2023/03/06 00:24:55;;;;;;;18.55;13.05;;;12.00;1.00;;;;;;4954828;29;20470;-62
2023/03/06 00:27:24;;;;;;;21.75;13.00;;;12.00;1.00;;;;;;4954892;29;20114;-62
2023/03/06 00:29:56;;;;;;;21.90;12.50;;;12.00;1.00;;;;;;4954763;29;20039;-62
2023/03/06 00:32:23;;;;;;;20.73;12.07;;;12.00;1.00;;;;;;4937524;29;20019;-61
2023/03/06 00:34:53;;;;;;;20.85;12.32;;;11.90;1.00;;;;;;4954577;29;20070;-62
2023/03/06 00:37:19;;;;;;;23.65;12.52;;;11.90;1.00;;;;;;4954627;29;20034;-62
2023/03/06 00:39:45;;;;;;;19.70;12.20;;;12.00;1.00;;;;;;4955082;29;20023;-62
2023/03/06 00:42:12;;;;;;;25.70;12.82;;;11.90;1.00;;;;;;4954781;29;20532;-62
2023/03/06 00:44:37;;;;;;;23.38;11.75;;;11.90;1.00;;;;;;4955248;29;20055;-62
2023/03/06 00:47:04;;;;;;;26.20;12.82;;;11.90;1.00;;;;;;4954784;29;20512;-62
2023/03/06 00:49:29;;;;;;;22.48;12.02;;;11.90;1.00;;;;;;4954315;29;20039;-62
2023/03/06 00:51:55;;;;;;;22.45;12.60;;;11.90;1.00;;;;;;4937814;29;20457;-62
2023/03/06 00:54:21;;;;;;;20.23;12.73;;;11.90;1.00;;;;;;4954755;29;20027;-62
2023/03/06 00:56:46;;;;;;;21.00;11.30;;;11.90;1.00;;;;;;4954492;29;20481;-62
2023/03/06 00:59:12;;;;;;;19.73;12.65;;;11.90;1.00;;;;;;4954519;29;20035;-61
2023/03/06 01:01:38;;;;;;;27.65;12.30;;;11.80;1.00;;;;;;4954473;29;20048;-62
2023/03/06 01:04:03;;;;;;;22.20;13.20;;;11.80;1.00;;;;;;4954135;29;20106;-62
2023/03/06 01:06:29;;;;;;;21.83;12.35;;;11.90;1.00;;;;;;4954417;29;20019;-62
2023/03/06 01:08:55;;;;;;;18.17;11.95;;;11.90;1.00;;;;;;4954316;29;20544;-62
2023/03/06 01:11:21;;;;;;;23.55;11.55;;;12.00;1.00;;;;;;4937209;29;20025;-62
2023/03/06 01:13:47;;;;;;;21.88;11.88;;;12.00;1.00;;;;;;4953679;29;20114;-62
2023/03/06 01:16:15;;;;;;;23.70;11.73;;;12.00;1.00;;;;;;4954333;29;20131;-61
2023/03/06 01:18:41;;;;;;;21.85;10.68;;;12.00;1.00;;;;;;4954663;29;20389;-62
2023/03/06 01:21:07;;;;;;;26.85;12.15;;;12.00;1.00;;;;;;4956501;28;20109;-62
2023/03/06 01:23:33;;;;;;;20.80;11.90;;;12.00;1.00;;;;;;4940989;29;20020;-62
2023/03/06 01:25:59;;;;;;;22.35;11.95;;;12.00;1.00;;;;;;4958065;29;20039;-61
2023/03/06 01:28:25;;;;;;;20.27;11.10;;;12.00;1.00;;;;;;4957792;29;20122;-62
2023/03/06 01:30:51;;;;;;;20.38;12.02;;;11.90;1.00;;;;;;4957638;29;20500;-62
2023/03/06 01:33:17;;;;;;;22.15;11.15;;;12.00;1.00;;;;;;4957986;29;20032;-62
2023/03/06 01:35:43;;;;;;;18.27;11.23;;;11.90;1.00;;;;;;4957656;29;20027;-62
2023/03/06 01:38:09;;;;;;;20.92;12.55;;;11.80;1.00;;;;;;4957969;29;20383;-61
2023/03/06 01:40:35;;;;;;;16.65;10.65;;;11.90;1.00;;;;;;4957581;29;20389;-61
2023/03/06 01:43:31;;;;;;;21.35;11.60;;;11.90;1.00;;;;;;4957551;29;20023;-61
2023/03/06 01:46:20;;;;;;;19.90;11.02;;;11.90;1.00;;;;;;4936256;29;20232;-61
2023/03/06 01:48:47;;;;;;;23.85;11.35;;;11.80;1.00;;;;;;4940223;29;20127;-61
2023/03/06 01:51:14;;;;;;;22.30;12.13;;;11.90;1.00;;;;;;4957305;29;20028;-61
2023/03/06 01:53:42;;;;;;;24.55;10.90;;;11.90;1.00;;;;;;4957428;29;20118;-61
2023/03/06 01:56:11;;;;;;;19.15;11.52;;;11.90;1.00;;;;;;4957377;29;20027;-61
2023/03/06 01:58:37;;;;;;;18.48;11.18;;;11.90;1.00;;;;;;4940183;29;20207;-62
2023/03/06 02:01:03;;;;;;;22.27;11.25;;;11.90;1.00;;;;;;4957354;29;20035;-61
2023/03/06 02:03:29;;;;;;;21.95;10.70;;;11.90;1.00;;;;;;4939983;29;20561;-61
2023/03/06 02:05:56;;;;;;;20.95;11.23;;;11.90;1.00;;;;;;4939849;29;20074;-61
2023/03/06 02:08:23;;;;;;;20.63;10.93;;;11.90;1.00;;;;;;4957092;29;20485;-61
2023/03/06 02:11:11;;;;;;;19.80;11.18;;;12.00;1.00;;;;;;4957481;29;20026;-61
2023/03/06 02:13:38;;;;;;;19.48;10.45;;;12.00;1.00;;;;;;4957106;29;20485;-61
2023/03/06 02:16:04;;;;;;;19.80;11.90;;;12.00;1.00;;;;;;4939807;29;20031;-61
2023/03/06 02:18:30;;;;;;;23.45;11.57;;;11.90;1.00;;;;;;4956532;29;20407;-61
2023/03/06 02:21:01;;;;;;;21.52;12.60;;;12.00;1.00;;;;;;4956349;29;20027;-62
2023/03/06 02:23:36;;;;;;;21.05;11.25;;;11.90;1.00;;;;;;4956006;29;20024;-61
2023/03/06 02:26:02;;;;;;;22.10;11.38;;;12.00;1.00;;;;;;4955821;29;20035;-61
2023/03/06 02:28:28;;;;;;;22.13;12.18;;;12.00;1.00;;;;;;4955358;29;20089;-61
2023/03/06 02:30:55;;;;;;;22.23;11.63;;;11.90;1.00;;;;;;4955814;29;20445;-61
2023/03/06 02:33:27;;;;;;;23.52;12.05;;;12.00;1.00;;;;;;4955630;28;20039;-61
2023/03/06 02:35:58;;;;;;;26.13;10.80;;;11.90;1.00;;;;;;4955807;29;20059;-61
2023/03/06 02:38:30;;;;;;;20.27;11.23;;;11.80;1.00;;;;;;4956062;29;20493;-61
2023/03/06 02:40:57;;;;;;;21.25;11.80;;;11.90;1.00;;;;;;4956104;29;20118;-61
2023/03/06 02:43:30;;;;;;;19.48;11.38;;;11.90;1.00;;;;;;4939608;29;20027;-61
2023/03/06 02:45:56;;;;;;;19.13;11.70;;;12.00;1.00;;;;;;4956531;29;20055;-61
2023/03/06 02:48:21;;;;;;;18.40;11.35;;;11.90;1.00;;;;;;4956367;29;20504;-61
2023/03/06 02:50:48;;;;;;;24.98;11.50;;;11.90;1.00;;;;;;4939028;29;20039;-61
2023/03/06 02:53:15;;;;;;;19.95;11.50;;;11.90;1.00;;;;;;4956369;29;20039;-61
2023/03/06 02:55:41;;;;;;;21.98;11.35;;;11.90;1.00;;;;;;4956327;29;20050;-61
2023/03/06 02:58:08;;;;;;;24.40;12.45;;;11.80;1.00;;;;;;4956457;29;20055;-61
2023/03/06 03:00:33;;;;;;;18.77;11.43;;;11.70;1.00;;;;;;4939270;29;20031;-61
2023/03/06 03:03:00;;;;;;;21.83;11.65;;;11.70;1.00;;;;;;4938819;29;20031;-61
2023/03/06 03:05:25;;;;;;;20.65;11.88;;;11.80;1.00;;;;;;4955272;29;20039;-61
2023/03/06 03:07:51;;;;;;;20.90;11.85;;;11.80;1.00;;;;;;4938854;29;20536;-61
2023/03/06 03:10:17;;;;;;;18.85;11.68;;;11.90;1.00;;;;;;4956028;29;20035;-61
2023/03/06 03:12:44;;;;;;;25.17;11.38;;;11.90;1.00;;;;;;4956176;29;20493;-61
2023/03/06 03:15:10;;;;;;;22.77;12.10;;;11.90;1.00;;;;;;4955900;29;20485;-61
2023/03/06 03:17:37;;;;;;;22.35;11.52;;;11.90;1.00;;;;;;4955965;29;20381;-61
2023/03/06 03:20:04;;;;;;;18.77;10.85;;;12.00;1.00;;;;;;4955905;29;20046;-61
2023/03/06 03:22:30;;;;;;;17.65;11.10;;;12.00;1.00;;;;;;4955695;29;20023;-61
2023/03/06 03:24:56;;;;;;;22.67;12.30;;;12.00;1.00;;;;;;4956107;29;20027;-61
2023/03/06 03:27:22;;;;;;;17.52;11.00;;;12.00;1.00;;;;;;4955919;29;20351;-61
2023/03/06 03:29:47;;;;;;;22.63;11.27;;;12.00;1.00;;;;;;4952312;29;20482;-61
2023/03/06 03:32:13;;;;;;;19.92;12.00;;;12.10;1.00;;;;;;4922576;29;20122;-61
2023/03/06 03:34:38;;;;;;;22.95;11.73;;;12.00;1.00;;;;;;4938502;29;20027;-61
2023/03/06 03:37:04;;;;;;;22.40;11.93;;;12.10;1.00;;;;;;4955414;29;20106;-61
2023/03/06 03:39:30;;;;;;;21.38;11.23;;;12.00;1.00;;;;;;4955768;29;20421;-61
2023/03/06 03:41:55;;;;;;;20.48;10.80;;;12.00;1.00;;;;;;4955634;29;20381;-61
2023/03/06 03:44:21;;;;;;;22.17;11.93;;;12.00;1.00;;;;;;4954534;28;20122;-61
2023/03/06 03:46:47;;;;;;;22.38;11.50;;;12.00;1.00;;;;;;4946274;29;20031;-61
2023/03/06 03:49:13;;;;;;;16.63;11.00;;;12.00;1.00;;;;;;4933908;29;20118;-61
2023/03/06 03:51:39;;;;;;;22.05;11.30;;;12.00;1.00;;;;;;4955354;29;20453;-61
2023/03/06 03:54:05;;;;;;;19.85;11.10;;;12.00;1.00;;;;;;4955382;29;20042;-61
2023/03/06 03:56:32;;;;;;;18.40;11.15;;;12.00;1.00;;;;;;4955227;29;20023;-61
2023/03/06 03:58:58;;;;;;;21.17;11.77;;;12.00;1.00;;;;;;4955536;29;20110;-62
2023/03/06 04:01:23;;;;;;;24.42;11.90;;;12.00;1.00;;;;;;4955542;29;20461;-61
2023/03/06 04:03:49;;;;;;;21.52;11.15;;;11.90;1.00;;;;;;4937975;29;20023;-60
2023/03/06 04:06:15;;;;;;;18.90;11.52;;;12.00;1.00;;;;;;4955152;29;20082;-61
2023/03/06 04:08:41;;;;;;;21.67;12.13;;;12.00;1.00;;;;;;4954834;29;20122;-60
2023/03/06 04:11:07;;;;;;;16.52;10.75;;;12.00;1.00;;;;;;4955357;29;20079;-61
2023/03/06 04:13:33;;;;;;;21.58;11.38;;;12.00;1.00;;;;;;4924454;29;20031;-61
2023/03/06 04:15:59;;;;;;;22.50;12.00;;;12.00;1.00;;;;;;4944843;29;20415;-60
2023/03/06 04:18:24;;;;;;;22.38;11.32;;;11.90;1.00;;;;;;4951928;29;20030;-61
2023/03/06 04:20:50;;;;;;;17.55;11.13;;;11.90;1.00;;;;;;4954824;29;20063;-61
2023/03/06 04:23:17;;;;;;;22.70;12.52;;;11.90;1.00;;;;;;4937732;29;20039;-61
2023/03/06 04:25:43;;;;;;;19.40;12.15;;;11.90;1.00;;;;;;4955109;29;20024;-61
2023/03/06 04:28:09;;;;;;;16.08;10.35;;;11.90;1.00;;;;;;4955065;29;20043;-61
2023/03/06 04:30:35;;;;;;;21.27;11.98;;;11.90;1.00;;;;;;4954754;29;20106;-61
2023/03/06 04:33:01;;;;;;;23.60;10.35;;;11.80;1.00;;;;;;4936940;29;20119;-61
2023/03/06 04:35:27;;;;;;;21.42;12.20;;;11.80;1.00;;;;;;4954896;29;20031;-61
2023/03/06 04:37:53;;;;;;;20.45;11.45;;;11.80;1.00;;;;;;4954952;29;20054;-61
2023/03/06 04:40:22;;;;;;;21.00;11.63;;;11.80;1.00;;;;;;4954008;29;20490;-61
2023/03/06 04:42:48;;;;;;;24.00;11.00;;;11.70;1.00;;;;;;4954281;29;20111;-61
2023/03/06 04:45:14;;;;;;;20.35;11.10;;;11.80;1.00;;;;;;4954237;29;20027;-61
2023/03/06 04:47:40;;;;;;;19.00;10.85;;;11.80;1.00;;;;;;4954629;29;20032;-61
2023/03/06 04:50:06;;;;;;;18.17;11.13;;;11.80;1.00;;;;;;4954580;29;20027;-61
2023/03/06 04:52:32;;;;;;;20.73;12.10;;;11.80;1.00;;;;;;4954856;29;20144;-61
2023/03/06 04:54:58;;;;;;;18.33;10.98;;;11.80;1.00;;;;;;4955353;28;20047;-61
2023/03/06 04:57:23;;;;;;;22.83;10.98;;;11.80;1.00;;;;;;4958518;29;20389;-61
2023/03/06 04:59:49;;;;;;;22.60;11.15;;;11.80;1.00;;;;;;4944857;29;20114;-61
2023/03/06 05:02:16;;;;;;;19.65;11.43;;;11.80;1.00;;;;;;4941137;29;20501;-61
2023/03/06 05:04:42;;;;;;;20.70;11.00;;;11.80;1.00;;;;;;4958029;29;20084;-61
2023/03/06 05:07:08;;;;;;;21.92;11.50;;;11.80;1.00;;;;;;4958316;29;20027;-61
2023/03/06 05:09:34;;;;;;;27.00;11.82;;;11.90;1.00;;;;;;4958549;29;20042;-61
2023/03/06 05:12:00;;;;;;;23.80;10.85;;;11.90;1.00;;;;;;4940835;29;20023;-61
2023/03/06 05:14:29;;;;;;;20.25;10.90;;;11.90;1.00;;;;;;4958542;29;20031;-61
2023/03/06 05:16:55;;;;;;;18.13;12.43;;;11.90;1.00;;;;;;4958079;29;20111;-60
2023/03/06 05:19:21;;;;;;;21.45;10.90;;;11.90;1.00;;;;;;4958199;29;20023;-61
2023/03/06 05:21:47;;;;;;;17.17;11.20;;;11.90;1.00;;;;;;4958219;29;20039;-61
2023/03/06 05:24:12;;;;;;;14.68;10.50;;;11.90;1.00;;;;;;4958240;29;20019;-61
2023/03/06 05:26:38;;;;;;;25.77;12.50;;;11.90;1.00;;;;;;4944684;29;20031;-61
2023/03/06 05:29:04;;;;;;;21.48;11.52;;;11.90;1.00;;;;;;4958092;29;20039;-61
2023/03/06 05:31:29;;;;;;;19.30;10.70;;;11.90;1.00;;;;;;4957902;29;20032;-61
2023/03/06 05:33:57;;;;;;;19.00;11.20;;;11.90;1.00;;;;;;4953321;29;20115;-61
2023/03/06 05:36:23;;;;;;;18.17;11.60;;;11.90;1.00;;;;;;4949188;29;20032;-60
2023/03/06 05:38:49;;;;;;;19.58;10.50;;;12.00;1.00;;;;;;4957746;29;20518;-60
2023/03/06 05:41:14;;;;;;;20.52;11.75;;;12.00;1.00;;;;;;4957943;29;20090;-61
2023/03/06 05:43:40;;;;;;;20.33;11.68;;;12.00;1.00;;;;;;4957554;29;20473;-61
2023/03/06 05:46:06;;;;;;;23.23;11.35;;;12.00;1.00;;;;;;4951213;29;20072;-63
2023/03/06 05:48:33;;;;;;;25.88;11.50;;;12.00;1.00;;;;;;4950814;29;20039;-61
2023/03/06 05:51:00;;;;;;;18.42;10.88;;;11.90;1.00;;;;;;4952809;29;20032;-60
2023/03/06 05:53:28;;;;;;;15.52;10.30;;;12.00;1.00;;;;;;4932659;29;20138;-61
2023/03/06 05:56:02;;;;;;;23.85;12.52;;;11.90;1.00;;;;;;4957373;29;20481;-61
2023/03/06 05:58:29;;;;;;;19.98;11.70;;;12.00;1.00;;;;;;4957358;29;20066;-61
2023/03/06 06:00:56;;;;;;;28.35;13.50;;;12.00;1.00;;;;;;4956854;29;20031;-61
2023/03/06 06:03:22;;;;;;;27.20;13.00;;;11.90;1.00;;;;;;4957339;29;20031;-61
2023/03/06 06:05:48;;;;;;;19.98;12.27;;;12.00;1.00;;;;;;4956947;28;20043;-61
2023/03/06 06:08:14;;;;;;;21.88;12.43;;;12.00;1.00;;;;;;4956568;29;20066;-61
2023/03/06 06:10:40;;;;;;;21.88;12.02;;;11.90;1.00;;;;;;4957485;29;20469;-61
2023/03/06 06:13:06;;;;;;;24.08;12.18;;;12.00;1.00;;;;;;4956920;29;20031;-61
2023/03/06 06:15:31;;;;;;;20.58;11.35;;;12.00;1.00;;;;;;4957407;29;20031;-61
2023/03/06 06:17:57;;;;;;;21.98;11.40;;;12.00;1.00;;;;;;4957088;29;20035;-61
2023/03/06 06:20:24;;;;;;;24.10;12.60;;;12.00;1.00;;;;;;4956929;29;20027;-61
2023/03/06 06:22:50;;;;;;;21.10;12.57;;;12.00;1.00;;;;;;4957073;29;20031;-61
2023/03/06 06:28:44;;;;;;;21.00;11.50;;;12.10;1.00;;;;;;4956599;29;20200;-61
2023/03/06 06:31:11;;;;;;;21.50;11.18;;;12.00;1.00;;;;;;4957101;29;20141;-61
2023/03/06 06:33:37;;;;;;;19.65;12.10;;;12.00;1.00;;;;;;4956994;29;20051;-61
2023/03/06 06:36:03;;;;;;;20.10;11.48;;;12.00;1.00;;;;;;4956791;29;20114;-61
2023/03/06 06:38:29;;;;;;;17.42;11.32;;;12.10;1.00;;;;;;4956685;29;20429;-61
2023/03/06 06:40:55;;;;;;;23.58;11.70;;;12.10;1.00;;;;;;4956573;29;20027;-62
2023/03/06 06:43:20;;;;;;;21.08;11.50;;;12.10;1.00;;;;;;4956464;29;20031;-61
2023/03/06 06:45:47;;;;;;;21.15;11.27;;;12.10;1.00;;;;;;4956660;29;20075;-61
2023/03/06 06:48:13;;;;;;;26.85;12.20;;;12.20;1.00;;;;;;4956667;29;20038;-61
2023/03/06 06:50:38;;;;;;;21.45;10.98;;;12.20;1.00;;;;;;4956283;29;20035;-60
2023/03/06 06:53:04;;;;;;;20.23;11.93;;;12.20;1.00;;;;;;4956647;29;20062;-60
2023/03/06 06:55:29;;;;;;;17.00;11.35;;;12.20;1.00;;;;;;4956587;29;20445;-61
2023/03/06 06:57:55;;;;;;;19.17;10.80;;;12.20;1.00;;;;;;4950967;29;20020;-60
2023/03/06 07:00:21;;;;;;;22.77;11.50;;;12.10;1.00;;;;;;4948915;29;20031;-61
2023/03/06 07:02:50;;;;;;;25.92;12.95;;;12.10;1.00;;;;;;4956421;29;20131;-61
2023/03/06 07:05:21;;;;;;;21.30;12.55;;;12.00;1.00;;;;;;4956019;29;20171;-61
2023/03/06 07:07:49;;;;;;;22.48;12.23;;;12.20;1.00;;;;;;4955957;29;20027;-61
2023/03/06 07:10:15;;;;;;;17.45;11.65;;;12.20;1.00;;;;;;4956339;29;20115;-60
2023/03/06 07:12:41;;;;;;;25.13;13.27;;;12.20;1.00;;;;;;4956045;29;20118;-61
2023/03/06 07:15:07;;;;;;;19.05;12.52;;;12.30;1.00;;;;;;4955914;29;20107;-61
2023/03/06 07:17:33;;;;;;;23.95;12.15;;;12.30;1.00;;;;;;4938602;28;20031;-60
2023/03/06 07:19:59;;;;;;;24.23;12.43;;;12.40;1.00;;;;;;4938572;29;20034;-61
2023/03/06 07:22:24;;;;;;;27.48;14.20;;;12.50;1.00;;;;;;4955805;29;20031;-60
2023/03/06 07:24:50;;;;;;;22.42;12.15;;;12.50;1.00;;;;;;4955934;29;20061;-61
2023/03/06 07:27:16;;;;;;;25.80;13.13;;;12.60;1.00;;;;;;4939032;29;20030;-61
2023/03/06 07:29:43;;;;;;;23.60;14.23;;;12.70;1.00;;;;;;4955924;29;20060;-61
2023/03/06 07:32:09;;;;;;;22.58;13.50;;;12.70;1.00;;;;;;4954511;29;20031;-61
2023/03/06 07:34:35;;;;;;;25.92;14.68;;;12.70;1.00;;;;;;4954909;29;20030;-60
2023/03/06 07:37:01;;;;;;;22.60;14.07;;;12.80;1.00;;;;;;4955733;29;20024;-60
2023/03/06 07:39:28;;;;;;;22.15;14.63;;;12.80;1.00;;;;;;4955922;29;20028;-60
2023/03/06 07:41:54;;;;;;;20.40;13.77;;;12.80;1.00;;;;;;4938425;29;20130;-60
2023/03/06 07:44:20;;;;;;;26.88;14.85;;;12.80;1.00;;;;;;4955775;29;20043;-60
2023/03/06 07:46:47;;;;;;;23.75;13.25;;;12.80;1.00;;;;;;4955663;29;20023;-60
2023/03/06 07:49:12;;;;;;;24.17;13.23;;;12.80;1.00;;;;;;4955344;29;20054;-60
2023/03/06 07:51:38;;;;;;;21.35;12.63;;;12.80;1.00;;;;;;4955201;29;20500;-58
2023/03/06 07:54:04;;;;;;;18.90;12.80;;;12.90;1.00;;;;;;4955292;29;20031;-56
2023/03/06 07:56:29;;;;;;;23.13;12.40;;;12.90;1.00;;;;;;4938248;29;20019;-48
2023/03/06 07:58:55;;;;;;;22.98;12.75;;;13.00;1.00;;;;;;4937902;29;20405;-52
2023/03/06 08:01:22;;;;;;;22.40;12.50;;;13.00;1.00;;;;;;4955379;29;20043;-55
2023/03/06 08:03:48;;;;;;;22.52;12.90;;;13.10;1.00;;;;;;4955232;29;20031;-59
2023/03/06 08:06:21;;;;;;;21.90;12.93;;;13.00;1.00;;;;;;4937795;29;20026;-52
2023/03/06 08:08:48;;;;;;;18.23;12.10;;;13.00;1.00;;;;;;4955390;29;20042;-55
2023/03/06 08:11:16;;;;;;;19.45;12.02;;;13.00;1.00;;;;;;4954901;29;20481;-56
2023/03/06 08:13:42;;;;;;;24.33;13.80;;;12.80;1.00;;;;;;4955001;29;20028;-53
2023/03/06 08:16:09;;;;;;;21.63;12.80;;;12.90;1.00;;;;;;4954995;29;20034;-55
2023/03/06 08:18:36;;;;;;;20.77;12.85;;;12.90;1.00;;;;;;4954904;29;20042;-55
2023/03/06 08:21:08;;;;;;;20.58;12.50;;;12.90;1.00;;;;;;4954942;29;20071;-55
2023/03/06 08:23:34;;;;;;;23.13;11.80;;;13.00;1.00;;;;;;4954060;29;20038;-57
2023/03/06 08:26:07;;;;;;;24.92;12.05;;;13.00;1.00;;;;;;4955076;29;20429;-51
2023/03/06 08:28:33;;;;;;;23.35;12.70;;;13.00;1.00;;;;;;4954651;29;20533;-52
2023/03/06 08:31:15;;;;;;;19.70;11.48;;;12.90;1.00;;;;;;4936966;29;20453;-53
2023/03/06 08:33:41;;;;;;;20.60;12.73;;;13.00;1.00;;;;;;4954713;29;20114;-59
2023/03/06 08:36:07;;;;;;;19.58;12.35;;;12.90;1.00;;;;;;4937718;29;20126;-57
2023/03/06 08:38:33;;;;;;;25.60;13.38;;;13.10;1.00;;;;;;4954791;29;20023;-54
2023/03/06 08:40:58;;;;;;;21.13;12.50;;;13.10;1.00;;;;;;4954680;29;20102;-56
2023/03/06 08:43:24;;;;;;;18.15;11.88;;;13.10;1.00;;;;;;4953948;29;20107;-54
2023/03/06 08:45:52;;;;;;;24.35;12.63;;;13.10;1.00;;;;;;4954327;29;20034;-52
2023/03/06 08:48:17;;;;;;;24.67;12.90;;;13.20;1.00;;;;;;4954296;29;20086;-51
2023/03/06 08:50:43;;;;;;;21.60;13.82;;;13.20;1.00;;;;;;4953628;29;20032;-52
2023/03/06 08:53:12;;;;;;;20.65;13.48;;;13.30;1.00;;;;;;4953120;29;20031;-58
2023/03/06 08:55:38;;;;;;;25.30;13.27;;;13.30;1.00;;;;;;4952685;29;20123;-57
2023/03/06 08:58:04;;;;;;;24.30;12.65;;;13.40;1.00;;;;;;4937990;29;20114;-60
2023/03/06 09:00:31;;;;;;;22.50;14.20;;;13.30;1.00;;;;;;4952704;29;20019;-63
2023/03/06 09:02:57;;;;;;;21.40;12.40;;;13.40;1.00;;;;;;4953416;29;20065;-60
2023/03/06 09:05:22;;;;;;;29.95;13.00;;;13.40;1.00;;;;;;4952799;29;20074;-61
2023/03/06 09:07:48;;;;;;;23.70;12.85;;;13.40;1.00;;;;;;4954291;29;20031;-62
2023/03/06 09:10:16;;;;;;;22.83;13.45;;;13.40;1.00;;;;;;4954644;29;20035;-60
2023/03/06 09:12:41;;;;;;;21.92;12.10;;;13.40;1.00;;;;;;4954451;29;20118;-59
2023/03/06 09:15:08;;;;;;;24.45;13.77;;;13.40;1.00;;;;;;4954368;29;20070;-59
2023/03/06 09:17:33;;;;;;;25.27;14.15;;;13.50;1.00;;;;;;4954609;29;20031;-60
2023/03/06 09:19:59;;;;;;;24.60;13.93;;;13.60;1.00;;;;;;4954670;29;20157;-59
2023/03/06 09:22:25;;;;;;;24.92;13.80;;;13.70;1.00;;;;;;4954535;29;20148;-61
2023/03/06 09:24:51;;;;;;;23.38;14.45;;;13.80;1.00;;;;;;4954532;29;20038;-62
2023/03/06 09:27:17;;;;;;;24.60;14.90;;;13.90;1.00;;;;;;4954413;29;20042;-61
2023/03/06 09:29:43;;;;;;;21.27;13.23;;;14.00;1.00;;;;;;4954520;29;20110;-59
2023/03/06 09:32:08;;;;;;;20.65;13.55;;;14.00;1.00;;;;;;4953201;29;20106;-58
2023/03/06 09:34:34;;;;;;;28.33;15.88;;;14.10;1.00;;;;;;4953501;29;20031;-58
2023/03/06 09:37:02;;;;;;;26.88;16.15;;;14.10;1.00;;;;;;4936858;29;20031;-59
2023/03/06 09:39:27;;;;;;;23.45;14.52;;;14.20;1.00;;;;;;4954456;29;20031;-58
2023/03/06 09:41:55;;;;;;;23.90;14.85;;;14.20;1.00;;;;;;4939030;29;20031;-62
2023/03/06 09:44:30;;;;;;;22.55;14.30;;;14.30;1.00;;;;;;4957579;29;20058;-58
2023/03/06 09:47:33;;;;;;;23.80;14.63;;;14.50;1.00;;;;;;4957882;29;20031;-59
2023/03/06 09:50:57;;;;;;;19.42;13.52;;;14.60;1.00;;;;;;4944699;29;20066;-60
2023/03/06 09:54:07;;;;;;;23.25;14.70;;;14.60;1.00;;;;;;4940154;29;20540;-55
2023/03/06 09:56:33;;;;;;;26.58;14.85;;;14.50;1.00;;;;;;4917318;29;20059;-61
2023/03/06 09:59:26;;;;;;;24.73;16.42;;;14.40;1.00;;;;;;4917243;29;20504;-68
2023/03/06 10:02:00;;;;;;;21.95;15.38;;;14.60;1.00;;;;;;4941746;29;20423;-66
2023/03/06 10:04:36;;;;;;;20.45;15.15;;;14.60;1.00;;;;;;4940024;29;20047;-61
2023/03/06 10:07:17;;;;;;;21.92;14.32;;;14.60;1.00;;;;;;4944646;29;20026;-62
2023/03/06 10:10:03;;;;;;;22.92;13.85;;;14.50;1.00;;;;;;4957129;29;20079;-62
2023/03/06 10:12:37;;;;;;;20.92;13.48;;;14.30;1.00;;;;;;4957324;29;20034;-61
2023/03/06 10:15:13;;;;;;;23.73;13.15;;;14.20;1.00;;;;;;4957184;29;20111;-60
2023/03/06 10:17:41;;;;;;;21.17;12.60;;;14.30;1.00;;;;;;4957321;29;20035;-58
2023/03/06 10:20:21;;;;;;;20.05;13.48;;;14.40;1.00;;;;;;4956887;29;20054;-62
2023/03/06 10:23:23;;;;;;;20.75;13.45;;;14.40;1.00;;;;;;4957298;29;20031;-60
2023/03/06 10:26:24;;;;;;;21.50;13.77;;;14.50;1.00;;;;;;4920817;29;20024;-59
2023/03/06 10:29:02;;;;;;;24.50;15.85;;;14.50;1.00;;;;;;4914209;29;20401;-60
2023/03/06 10:31:28;;;;;;;23.75;15.20;;;14.60;1.00;;;;;;4956528;29;20035;-61
2023/03/06 10:34:14;;;;;;;22.50;14.20;;;14.70;1.00;;;;;;4948178;29;20106;-61
2023/03/06 10:36:39;;;;;;;24.67;13.75;;;14.70;1.00;;;;;;4956932;29;20034;-61
2023/03/06 10:39:14;;;;;;;19.45;12.95;;;14.90;1.00;;;;;;4943251;29;20370;-63
2023/03/06 10:41:40;;;;;;;20.23;13.40;;;15.00;1.00;;;;;;4956715;29;20042;-62
2023/03/06 10:44:06;;;;;;;21.33;12.70;;;15.00;1.00;;;;;;4956520;29;20016;-61
2023/03/06 10:46:42;;;;;;;23.98;13.63;;;15.00;1.00;;;;;;4946539;29;20032;-62
2023/03/06 10:49:30;;;;;;;23.77;13.68;;;15.00;1.00;;;;;;4954951;29;20035;-62
2023/03/06 10:52:03;;;;;;;21.33;13.57;;;15.10;1.00;;;;;;4956484;29;20027;-61
2023/03/06 10:54:32;;;;;;;21.85;13.77;;;15.10;1.00;;;;;;4955836;28;20027;-62
2023/03/06 10:57:16;;;;;;;19.27;12.63;;;15.10;1.00;;;;;;4939667;29;20395;-62
2023/03/06 10:59:56;;;;;;;20.15;13.15;;;15.20;1.00;;;;;;4956224;29;20059;-62
2023/03/06 11:02:38;;;;;;;22.08;13.73;;;15.30;1.00;;;;;;4955684;29;20384;-71
2023/03/06 11:05:05;;;;;;;20.80;12.80;;;15.40;1.00;;;;;;4949223;29;20532;-62
2023/03/06 11:07:33;;;;;;;18.85;13.52;;;15.50;1.00;;;;;;4952864;29;20031;-59
2023/03/06 11:10:25;;;;;;;24.25;12.80;;;15.40;1.00;;;;;;4953738;29;20564;-58
2023/03/06 11:13:06;;;;;;;24.35;14.18;;;15.40;1.00;;;;;;4949630;29;20129;-62
2023/03/06 11:15:32;;;;;;;19.13;13.02;;;15.70;1.00;;;;;;4950248;29;20094;-63
2023/03/06 11:18:34;;;;;;;17.50;12.68;;;15.80;1.00;;;;;;4955278;29;20059;-60
2023/03/06 11:21:06;;;;;;;20.80;14.00;;;15.80;1.00;;;;;;4945561;29;20035;-63
2023/03/06 11:23:40;;;;;;;23.30;15.38;;;15.90;1.00;;;;;;4955891;29;20381;-62
2023/03/06 11:26:15;;;;;;;23.27;13.70;;;16.00;1.00;;;;;;4954224;29;20027;-61
2023/03/06 11:28:59;;;;;;;22.67;13.95;;;16.10;1.00;;;;;;4953603;29;20039;-63
2023/03/06 11:31:44;;;;;;;22.98;15.50;;;16.00;1.00;;;;;;4953124;29;20031;-64
2023/03/06 11:34:22;;;;;;;22.05;15.25;;;15.90;1.00;;;;;;4955050;29;20253;-64
2023/03/06 11:40:40;;;;;;;19.50;14.30;;;16.00;1.00;;;;;;4912661;29;20129;-62
2023/03/06 11:43:49;;;;;;;22.70;15.63;;;16.00;1.00;;;;;;4948084;29;20031;-62
2023/03/06 11:46:50;;;;;;;19.48;14.02;;;15.80;1.00;;;;;;4948225;29;20020;-64
2023/03/06 11:49:42;;;;;;;17.15;12.77;;;15.70;1.00;;;;;;4937146;29;20050;-56
2023/03/06 11:52:18;;;;;;;22.17;15.35;;;15.70;1.00;;;;;;4940548;29;20473;-56
2023/03/06 11:54:54;;;;;;;24.95;14.25;;;15.80;1.00;;;;;;4952591;29;20027;-55
2023/03/06 11:57:53;;;;;;;17.10;12.95;;;15.80;1.00;;;;;;4952871;29;20023;-58
2023/03/06 12:00:28;;;;;;;22.75;14.25;;;15.80;1.00;;;;;;4935873;29;20042;-58
2023/03/06 12:03:02;;;;;;;;;;;15.70;1.00;;;;;;4953789;29;20106;-58
2023/03/06 12:06:02;;;;;;;21.20;14.20;;;15.30;1.00;;;;;;4953056;28;20503;-59
2023/03/06 12:08:39;;;;;;;21.35;14.57;;;15.20;1.00;;;;;;4951285;29;20031;-59
2023/03/06 12:11:30;;;;;;;18.65;13.25;;;15.10;1.00;;;;;;4951974;29;20034;-58
2023/03/06 12:14:13;;;;;;;20.77;14.30;;;15.40;1.00;;;;;;4943134;29;20031;-59
2023/03/06 12:16:42;;;;;;;21.95;13.50;;;15.60;1.00;;;;;;4954684;29;20047;-59
2023/03/06 12:19:13;;;;;;;23.40;15.00;;;16.10;1.00;;;;;;4954849;29;20023;-59
2023/03/06 12:22:05;;;;;;;23.65;14.13;;;16.30;1.00;;;;;;4955107;29;20392;-60
2023/03/06 12:24:56;;;;;;;21.95;13.85;;;16.60;1.00;;;;;;4944243;29;20030;-59
2023/03/06 12:27:43;;;;;;;24.00;14.85;;;16.60;1.00;;;;;;4954385;29;20094;-60
2023/03/06 12:30:54;;;;;;;20.60;15.48;;;16.60;1.00;;;;;;4954786;29;20051;-59
2023/03/06 12:33:39;;;;;;;20.48;15.23;;;16.60;1.00;;;;;;4938554;29;20126;-59
2023/03/06 12:36:32;;;;;;;21.45;15.13;;;16.80;1.00;;;;;;4935652;29;20024;-60
2023/03/06 12:39:15;;;;;;;20.52;16.10;;;16.70;1.00;;;;;;4951004;29;20027;-59
2023/03/06 12:41:59;;;;;;;23.67;14.50;;;16.60;1.00;;;;;;4953502;29;20023;-60
2023/03/06 12:44:36;;;;;;;22.80;15.32;;;16.70;1.00;;;;;;4949791;29;20390;-59
2023/03/06 12:47:08;;;;;;;24.20;15.32;;;16.90;1.00;;;;;;4947234;29;20590;-59
2023/03/06 12:49:37;;;;;;;19.58;15.10;;;17.20;1.00;;;;;;4954158;29;20100;-60
2023/03/06 12:52:06;;;;;;;20.63;15.70;;;17.00;1.00;;;;;;4954614;29;20031;-59
2023/03/06 12:54:36;;;;;;;21.45;14.90;;;16.50;1.00;;;;;;4954220;29;20465;-59
2023/03/06 12:57:05;;;;;;;20.05;15.40;;;16.60;1.00;;;;;;4954678;29;20035;-59
2023/03/06 12:59:46;;;;;;;21.55;15.07;;;16.80;1.00;;;;;;4954529;29;20038;-59